New Bloomington, Ohio
Current Conditions -  °F | °C
As of 5:53 AM on Friday 19 Dec 2014 (Local Time) from KMNN Reporting Station
Haze Haze  
Wind Chill: 19°   Ceiling: 1000
Heat Index: 27°   Visibility: 5mi
Dew Point: 23°   Wind: 7mph
Humidity: 85%   Direction: 290°WNW
Pressure: 30.22"   Gusts: NA
Location:  40.58°N, 83.32°W
Report Text: KMNN 191053Z AUTO 29006KT 5SM BR OVC010 M03/M05 A3022 RMK AO2 SLP245 T10281050 TSNO
Loading
Personal Weather Stations






























Interactive Weather Map New forecast layout! Learn more

10-Day Weather Forecast

Advertisements
Track Severe Weather on mobile